createdAt,value
2022-07-29T00:01:02.242Z,99.90
2022-07-29T00:03:30.782Z,99.90
2022-07-29T00:05:59.379Z,99.90
2022-07-29T00:08:27.689Z,99.90
2022-07-29T00:10:54.778Z,99.90
2022-07-29T00:13:32.148Z,99.90
2022-07-29T00:16:04.368Z,99.90
2022-07-29T00:18:32.480Z,99.90
2022-07-29T00:20:59.537Z,99.90
2022-07-29T00:23:26.429Z,99.90
2022-07-29T00:25:53.295Z,99.90
2022-07-29T00:28:20.215Z,99.90
2022-07-29T00:30:47.026Z,99.90
2022-07-29T00:33:13.970Z,99.90
2022-07-29T00:35:47.054Z,99.90
2022-07-29T00:38:15.508Z,99.90
2022-07-29T00:40:43.261Z,99.90
2022-07-29T00:43:12.033Z,99.90
2022-07-29T00:45:38.861Z,99.90
2022-07-29T00:48:06.115Z,99.90
2022-07-29T00:50:33.498Z,99.90
2022-07-29T00:53:00.996Z,99.90
2022-07-29T00:55:28.452Z,99.90
2022-07-29T00:57:57.862Z,99.90
2022-07-29T01:00:26.913Z,99.90
2022-07-29T01:02:53.815Z,99.90
2022-07-29T01:05:51.103Z,99.90
2022-07-29T01:08:15.404Z,99.90
2022-07-29T01:10:43.092Z,99.90
2022-07-29T01:13:11.578Z,99.90
2022-07-29T01:15:49.482Z,99.90
2022-07-29T01:18:29.403Z,99.90
2022-07-29T01:21:03.475Z,99.90
2022-07-29T01:23:55.153Z,99.90
2022-07-29T01:26:46.606Z,99.90
2022-07-29T01:29:40.573Z,99.90
2022-07-29T01:32:28.773Z,99.90
2022-07-29T01:35:17.599Z,99.90
2022-07-29T01:38:02.810Z,99.90
2022-07-29T01:40:40.196Z,99.90
2022-07-29T01:43:40.379Z,99.90
2022-07-29T01:46:14.774Z,99.90
2022-07-29T01:48:55.205Z,99.90
2022-07-29T01:51:28.958Z,99.90
2022-07-29T01:54:07.128Z,99.90
2022-07-29T01:56:36.204Z,99.90
2022-07-29T01:59:09.900Z,99.90
2022-07-29T02:01:40.702Z,99.90
2022-07-29T02:04:10.989Z,99.90
2022-07-29T02:06:41.834Z,99.90
2022-07-29T02:09:12.309Z,99.90
2022-07-29T02:11:40.322Z,99.90
2022-07-29T02:14:10.300Z,99.90
2022-07-29T02:16:39.903Z,99.90
2022-07-29T02:19:09.609Z,99.90
2022-07-29T02:21:39.956Z,99.90
2022-07-29T02:24:12.989Z,99.90
2022-07-29T02:26:42.512Z,99.90
2022-07-29T02:29:10.636Z,99.90
2022-07-29T02:31:38.966Z,99.90
2022-07-29T02:34:08.525Z,99.90
2022-07-29T02:36:35.901Z,99.90
2022-07-29T02:39:04.424Z,99.90
2022-07-29T02:42:04.846Z,99.90
2022-07-29T02:44:34.901Z,99.90
2022-07-29T02:47:13.814Z,99.90
2022-07-29T02:49:43.323Z,99.90
2022-07-29T02:52:19.551Z,99.90
2022-07-29T02:55:03.632Z,99.90
2022-07-29T02:57:35.793Z,99.90
2022-07-29T03:00:24.762Z,99.90
2022-07-29T03:02:54.861Z,99.90
2022-07-29T03:05:23.519Z,99.90
2022-07-29T03:07:56.675Z,99.90
2022-07-29T03:10:26.079Z,99.90
2022-07-29T03:12:53.845Z,99.90
2022-07-29T03:15:21.892Z,99.90
2022-07-29T03:17:52.063Z,99.90
2022-07-29T03:20:19.402Z,99.90
2022-07-29T03:22:49.537Z,99.90
2022-07-29T03:25:20.091Z,99.90
2022-07-29T03:27:48.220Z,99.90
2022-07-29T03:30:21.639Z,99.90
2022-07-29T03:32:52.032Z,99.90
2022-07-29T03:35:23.701Z,99.90
2022-07-29T03:37:51.096Z,99.90
2022-07-29T03:40:24.370Z,99.90
2022-07-29T03:42:54.947Z,99.90
2022-07-29T03:45:23.017Z,99.90
2022-07-29T03:48:00.345Z,99.90
2022-07-29T03:50:29.764Z,99.90
2022-07-29T03:52:56.987Z,99.90
2022-07-29T03:55:24.461Z,99.90
2022-07-29T03:57:52.328Z,99.90
2022-07-29T04:00:20.365Z,99.90
2022-07-29T04:02:49.484Z,99.90
2022-07-29T04:05:17.611Z,99.90
2022-07-29T04:07:53.396Z,99.90
2022-07-29T04:10:30.236Z,99.90
2022-07-29T04:13:00.051Z,99.90
2022-07-29T04:15:31.314Z,99.90
2022-07-29T04:18:00.047Z,99.90
2022-07-29T04:20:27.093Z,99.90
2022-07-29T04:22:53.863Z,99.90
2022-07-29T04:25:20.835Z,99.90
2022-07-29T04:28:02.665Z,99.90
2022-07-29T04:30:30.946Z,99.90
2022-07-29T04:32:57.815Z,99.90
2022-07-29T04:35:24.668Z,99.90
2022-07-29T04:37:51.415Z,99.90
2022-07-29T04:40:18.273Z,99.90
2022-07-29T04:42:46.860Z,99.90
2022-07-29T04:45:15.115Z,99.90
2022-07-29T04:47:43.088Z,99.90
2022-07-29T04:50:10.705Z,99.90
2022-07-29T04:52:37.888Z,99.90
2022-07-29T04:55:06.279Z,99.90
2022-07-29T04:57:33.327Z,99.90
2022-07-29T05:00:00.526Z,99.90
2022-07-29T05:02:27.348Z,99.90
2022-07-29T05:04:54.190Z,99.90
2022-07-29T05:07:21.048Z,99.90
2022-07-29T05:09:48.259Z,99.90
2022-07-29T05:12:15.081Z,99.90
2022-07-29T05:14:41.868Z,99.90
2022-07-29T05:17:08.973Z,99.90
2022-07-29T05:19:39.696Z,99.90
2022-07-29T05:22:06.906Z,99.90
2022-07-29T05:24:33.678Z,99.90
2022-07-29T05:27:00.597Z,99.90
2022-07-29T05:29:43.960Z,99.90
2022-07-29T05:32:13.743Z,99.90
2022-07-29T05:34:50.920Z,99.90
2022-07-29T05:37:20.060Z,99.90
2022-07-29T05:39:50.672Z,99.90
2022-07-29T05:42:24.282Z,99.90
2022-07-29T05:44:51.065Z,99.90
2022-07-29T05:47:18.003Z,99.90
2022-07-29T05:49:45.126Z,99.90
2022-07-29T05:52:12.023Z,99.90
2022-07-29T05:54:39.038Z,99.90
2022-07-29T05:57:06.410Z,99.90
2022-07-29T05:59:37.021Z,99.90
2022-07-29T06:02:05.945Z,99.90
2022-07-29T06:04:33.823Z,99.90
2022-07-29T06:07:00.804Z,99.90
2022-07-29T06:09:29.228Z,99.90
2022-07-29T06:11:56.337Z,99.90
2022-07-29T06:14:23.092Z,99.90
2022-07-29T06:16:50.611Z,99.90
2022-07-29T06:19:17.452Z,99.90
2022-07-29T06:21:45.011Z,99.90
2022-07-29T06:24:16.619Z,99.90
2022-07-29T06:26:44.954Z,99.90
2022-07-29T06:29:12.173Z,99.90
2022-07-29T06:31:39.148Z,99.90
2022-07-29T06:34:05.993Z,99.90
2022-07-29T06:36:39.833Z,99.90
2022-07-29T06:39:08.949Z,99.90
2022-07-29T06:41:36.350Z,99.90
2022-07-29T06:44:09.767Z,99.90
2022-07-29T06:46:37.610Z,99.90
2022-07-29T06:49:05.396Z,99.90
2022-07-29T06:51:32.260Z,99.90
2022-07-29T06:54:03.251Z,99.90
2022-07-29T06:56:39.195Z,99.90
2022-07-29T06:59:08.364Z,99.90
2022-07-29T07:01:36.193Z,99.90
2022-07-29T07:04:03.307Z,99.90
2022-07-29T07:06:30.118Z,99.90
2022-07-29T07:08:56.861Z,99.90
2022-07-29T07:11:25.815Z,99.90
2022-07-29T07:13:52.779Z,99.90
2022-07-29T07:16:19.643Z,99.90
2022-07-29T07:18:46.543Z,99.90
2022-07-29T07:21:18.747Z,99.90
2022-07-29T07:23:46.916Z,99.90
2022-07-29T07:26:13.663Z,99.90
2022-07-29T07:28:40.966Z,99.90
2022-07-29T07:31:07.778Z,99.90
2022-07-29T07:33:34.658Z,99.90
2022-07-29T07:36:01.474Z,99.90
2022-07-29T07:38:28.254Z,99.90
2022-07-29T07:40:55.016Z,99.90
2022-07-29T07:43:22.735Z,99.90
2022-07-29T07:45:49.548Z,99.90
2022-07-29T07:48:16.404Z,99.90
2022-07-29T07:50:44.735Z,99.90
2022-07-29T07:53:11.928Z,99.90
2022-07-29T07:58:30.367Z,99.90
2022-07-29T08:00:57.234Z,99.90
2022-07-29T08:03:24.084Z,99.90
2022-07-29T08:05:52.715Z,99.90
2022-07-29T08:08:19.749Z,99.90
2022-07-29T08:11:02.180Z,99.90
2022-07-29T08:13:32.865Z,99.90
2022-07-29T08:16:12.480Z,99.90
2022-07-29T08:18:40.676Z,99.90
2022-07-29T08:21:07.703Z,99.90
2022-07-29T08:23:50.515Z,99.90
2022-07-29T08:26:21.760Z,99.90
2022-07-29T08:28:51.177Z,99.90
2022-07-29T08:31:18.164Z,99.90
2022-07-29T08:33:44.960Z,99.90
2022-07-29T08:36:13.635Z,99.90
2022-07-29T08:38:40.505Z,99.90
2022-07-29T08:41:07.352Z,99.90
2022-07-29T08:43:36.039Z,99.90
2022-07-29T08:46:03.006Z,99.90
2022-07-29T08:48:30.187Z,99.90
2022-07-29T08:50:57.840Z,99.90
2022-07-29T08:53:28.123Z,99.90
2022-07-29T08:55:55.646Z,99.90
2022-07-29T08:58:24.668Z,99.90
2022-07-29T09:00:56.749Z,99.90
2022-07-29T09:03:28.216Z,99.90
2022-07-29T09:05:55.310Z,99.90
2022-07-29T09:08:22.556Z,99.90
2022-07-29T09:10:50.149Z,99.90
2022-07-29T09:13:18.708Z,99.90
2022-07-29T09:15:46.293Z,99.90
2022-07-29T09:18:20.506Z,99.90
2022-07-29T09:21:16.660Z,99.90
2022-07-29T09:24:00.389Z,99.90
2022-07-29T09:26:32.182Z,99.90
2022-07-29T09:29:00.277Z,99.90
2022-07-29T09:31:35.708Z,99.90
2022-07-29T09:34:03.037Z,99.90
2022-07-29T09:36:30.668Z,99.90
2022-07-29T09:39:04.156Z,99.90
2022-07-29T09:41:44.284Z,99.90
2022-07-29T09:44:11.605Z,99.90
2022-07-29T09:46:38.638Z,99.90
2022-07-29T09:49:13.967Z,99.90
2022-07-29T09:51:41.300Z,99.90
2022-07-29T09:54:37.839Z,99.90
2022-07-29T09:57:13.384Z,99.90
2022-07-29T09:59:50.195Z,99.90
2022-07-29T10:02:22.733Z,99.90
2022-07-29T10:04:50.841Z,99.90
2022-07-29T10:07:17.723Z,99.90
2022-07-29T10:09:57.976Z,99.90
2022-07-29T10:12:25.440Z,99.90
2022-07-29T10:14:52.494Z,99.90
2022-07-29T10:17:20.311Z,99.90
2022-07-29T10:19:47.908Z,99.90
2022-07-29T10:22:15.045Z,99.90
2022-07-29T10:24:42.021Z,99.90
2022-07-29T10:27:09.772Z,99.90
2022-07-29T10:29:37.279Z,99.90
2022-07-29T10:32:33.162Z,99.90
2022-07-29T10:35:21.830Z,99.90
2022-07-29T10:38:16.661Z,99.90
2022-07-29T10:41:20.981Z,99.90
2022-07-29T10:43:51.095Z,99.90
2022-07-29T10:46:19.475Z,99.90
2022-07-29T10:49:15.619Z,99.90
2022-07-29T10:51:55.828Z,99.90
2022-07-29T10:54:44.214Z,99.90
2022-07-29T10:57:17.141Z,99.90
2022-07-29T10:59:46.275Z,99.90
2022-07-29T11:02:42.239Z,99.90
2022-07-29T11:05:13.591Z,99.90
2022-07-29T11:08:02.231Z,99.90
2022-07-29T11:10:31.335Z,99.90
2022-07-29T11:12:59.408Z,99.90
2022-07-29T11:15:28.429Z,99.90
2022-07-29T11:17:59.480Z,99.90
2022-07-29T11:20:42.689Z,99.90
2022-07-29T11:23:33.767Z,99.90
2022-07-29T11:26:14.622Z,99.90
2022-07-29T11:28:55.753Z,99.90
2022-07-29T11:31:44.734Z,99.90
2022-07-29T11:34:28.147Z,99.90
2022-07-29T11:37:12.429Z,99.90
2022-07-29T11:39:55.556Z,99.90
2022-07-29T11:45:43.551Z,99.90
2022-07-29T11:48:29.607Z,99.90
2022-07-29T11:50:49.052Z,99.10
2022-07-29T11:53:17.021Z,98.70
2022-07-29T11:55:50.813Z,98.10
2022-07-29T11:58:26.343Z,98.30
2022-07-29T12:00:55.715Z,97.20
2022-07-29T12:03:35.478Z,97.70
2022-07-29T12:06:04.753Z,97.10
2022-07-29T12:07:01.818Z,99.90
2022-07-29T12:08:41.655Z,97.50
2022-07-29T12:11:17.677Z,97.00
2022-07-29T12:13:47.369Z,97.60
2022-07-29T12:16:25.502Z,96.30
2022-07-29T12:19:04.093Z,97.20
2022-07-29T12:21:56.937Z,96.90
2022-07-29T12:24:26.925Z,97.10
2022-07-29T12:26:59.511Z,97.00
2022-07-29T12:29:34.717Z,96.80
2022-07-29T12:32:05.561Z,96.60
2022-07-29T12:34:33.176Z,96.90
2022-07-29T12:37:00.771Z,96.80
2022-07-29T12:39:29.205Z,97.20
2022-07-29T12:42:04.537Z,96.60
2022-07-29T12:44:51.444Z,94.80
2022-07-29T12:47:20.389Z,94.20
2022-07-29T12:49:48.674Z,94.10
2022-07-29T12:52:28.753Z,95.20
2022-07-29T12:54:56.107Z,96.10
2022-07-29T12:57:23.355Z,95.30
2022-07-29T13:00:12.321Z,95.40
2022-07-29T13:02:41.049Z,95.30
2022-07-29T13:05:09.321Z,96.40
2022-07-29T13:07:39.757Z,96.30
2022-07-29T13:10:24.117Z,97.10
2022-07-29T13:13:20.467Z,96.50
2022-07-29T13:15:49.971Z,96.30
2022-07-29T13:18:34.470Z,96.60
2022-07-29T13:21:15.343Z,96.70
2022-07-29T13:23:43.299Z,97.30
2022-07-29T13:26:12.360Z,97.50
2022-07-29T13:28:40.099Z,97.50
2022-07-29T13:31:06.860Z,97.70
2022-07-29T13:33:33.622Z,97.90
2022-07-29T13:36:00.498Z,97.70
2022-07-29T13:38:31.075Z,98.30
2022-07-29T13:40:58.573Z,98.70
2022-07-29T13:43:25.539Z,99.40
2022-07-29T13:45:52.991Z,99.70
2022-07-29T13:48:19.967Z,99.90
2022-07-29T13:50:47.757Z,99.90
2022-07-29T13:53:17.580Z,99.90
2022-07-29T13:55:46.475Z,99.90
2022-07-29T13:58:14.149Z,99.90
2022-07-29T14:00:40.911Z,99.90
2022-07-29T14:03:07.756Z,99.90
2022-07-29T14:05:34.578Z,99.90
2022-07-29T14:08:01.348Z,99.90
2022-07-29T14:10:28.424Z,99.60
2022-07-29T14:12:55.312Z,99.90
2022-07-29T14:15:22.091Z,99.90
2022-07-29T14:17:48.901Z,99.90
2022-07-29T14:20:17.106Z,99.90
2022-07-29T14:22:45.135Z,99.90
2022-07-29T14:25:14.910Z,99.90
2022-07-29T14:27:43.798Z,99.90
2022-07-29T14:30:11.468Z,99.90
2022-07-29T14:32:38.332Z,99.70
2022-07-29T14:35:06.575Z,99.20
2022-07-29T14:37:39.875Z,99.60
2022-07-29T14:40:08.991Z,99.70
2022-07-29T14:42:37.124Z,99.60
2022-07-29T14:45:05.837Z,99.60
2022-07-29T14:47:33.528Z,99.90
2022-07-29T14:50:00.710Z,99.40
2022-07-29T14:52:27.447Z,99.70
2022-07-29T14:54:54.564Z,99.70
2022-07-29T14:57:21.272Z,99.60
2022-07-29T14:59:48.021Z,98.50
2022-07-29T15:02:14.945Z,98.90
2022-07-29T15:04:41.731Z,99.20
2022-07-29T15:07:09.175Z,99.00
2022-07-29T15:09:40.295Z,99.50
2022-07-29T15:12:16.719Z,99.00
2022-07-29T15:14:43.553Z,99.60
2022-07-29T15:17:10.598Z,99.90
2022-07-29T15:19:37.493Z,99.90
2022-07-29T15:22:06.273Z,99.60
2022-07-29T15:24:33.540Z,99.90
2022-07-29T15:27:00.619Z,99.90
2022-07-29T15:29:27.381Z,99.90
2022-07-29T15:31:54.382Z,99.90
2022-07-29T15:34:21.810Z,99.90
2022-07-29T15:36:52.414Z,99.90
2022-07-29T15:39:21.446Z,99.90
2022-07-29T15:41:48.376Z,99.90
2022-07-29T15:44:15.147Z,99.90
2022-07-29T15:47:01.199Z,99.90
2022-07-29T15:49:47.462Z,99.90
2022-07-29T15:52:26.051Z,99.90
2022-07-29T15:54:57.864Z,99.90
2022-07-29T15:57:25.244Z,99.90
2022-07-29T15:59:52.193Z,99.90
2022-07-29T16:02:19.137Z,99.90
2022-07-29T16:04:45.966Z,99.90
2022-07-29T16:07:12.727Z,99.90
2022-07-29T16:09:41.701Z,99.90
2022-07-29T16:12:14.806Z,99.90
2022-07-29T16:14:42.878Z,99.90
2022-07-29T16:17:09.716Z,99.90
2022-07-29T16:19:41.773Z,99.90
2022-07-29T16:22:10.052Z,99.90
2022-07-29T16:24:37.187Z,99.90
2022-07-29T16:27:04.321Z,99.90
2022-07-29T16:29:31.136Z,99.90
2022-07-29T16:31:57.974Z,99.90
2022-07-29T16:34:24.767Z,99.90
2022-07-29T16:36:51.501Z,99.90
2022-07-29T16:39:18.361Z,99.90
2022-07-29T16:41:45.116Z,99.90
2022-07-29T16:44:11.927Z,99.90
2022-07-29T16:46:39.108Z,99.90
2022-07-29T16:49:08.344Z,99.90
2022-07-29T16:51:35.252Z,99.90
2022-07-29T16:54:02.279Z,99.90
2022-07-29T16:56:29.040Z,99.90
2022-07-29T16:58:58.025Z,99.90
2022-07-29T17:01:24.783Z,99.90
2022-07-29T17:04:06.585Z,99.90
2022-07-29T17:06:38.503Z,99.90
2022-07-29T17:09:06.897Z,99.90
2022-07-29T17:11:53.482Z,99.90
2022-07-29T17:14:26.388Z,99.90
2022-07-29T17:17:00.203Z,99.90
2022-07-29T17:19:29.611Z,99.90
2022-07-29T17:22:04.658Z,99.90
2022-07-29T17:24:36.051Z,99.90
2022-07-29T17:27:02.881Z,99.90
2022-07-29T17:29:30.002Z,99.90
2022-07-29T17:31:59.312Z,99.90
2022-07-29T17:34:26.792Z,99.90
2022-07-29T17:36:53.539Z,99.90
2022-07-29T17:39:20.327Z,99.90
2022-07-29T17:41:47.216Z,99.90
2022-07-29T17:44:14.285Z,99.90
2022-07-29T17:46:41.306Z,99.90
2022-07-29T17:49:08.234Z,99.90
2022-07-29T17:51:35.001Z,99.90
2022-07-29T17:54:01.801Z,99.90
2022-07-29T17:56:28.534Z,99.90
2022-07-29T17:58:55.572Z,99.90
2022-07-29T18:01:23.824Z,99.90
2022-07-29T18:03:50.852Z,99.90
2022-07-29T18:06:17.945Z,99.90
2022-07-29T18:08:47.535Z,99.90
2022-07-29T18:11:15.126Z,99.90
2022-07-29T18:13:42.536Z,99.90
2022-07-29T18:16:09.409Z,99.90
2022-07-29T18:18:36.464Z,99.90
2022-07-29T18:21:03.688Z,99.90
2022-07-29T18:23:30.799Z,99.90
2022-07-29T18:25:57.899Z,99.90
2022-07-29T18:28:25.579Z,99.90
2022-07-29T18:31:00.815Z,99.90
2022-07-29T18:33:27.779Z,99.90
2022-07-29T18:36:04.183Z,99.90
2022-07-29T18:38:38.480Z,99.90
2022-07-29T18:41:05.407Z,99.90
2022-07-29T18:43:32.250Z,99.90
2022-07-29T18:45:59.210Z,99.90
2022-07-29T18:48:26.320Z,99.90
2022-07-29T18:50:53.343Z,99.90
2022-07-29T18:53:20.295Z,99.90
2022-07-29T18:55:47.089Z,99.90
2022-07-29T18:58:13.979Z,99.90
2022-07-29T19:00:40.794Z,99.90
2022-07-29T19:03:08.935Z,99.90
2022-07-29T19:05:35.981Z,99.90
2022-07-29T19:08:02.849Z,99.90
2022-07-29T19:10:30.419Z,99.90
2022-07-29T19:12:57.737Z,99.90
2022-07-29T19:15:24.828Z,99.90
2022-07-29T19:17:51.617Z,99.90
2022-07-29T19:20:19.322Z,99.90
2022-07-29T19:22:46.525Z,99.90
2022-07-29T19:25:13.604Z,99.90
2022-07-29T19:27:42.242Z,99.90
2022-07-29T19:30:09.609Z,99.90
2022-07-29T19:32:37.414Z,99.90
2022-07-29T19:35:24.202Z,99.90
2022-07-29T19:37:55.910Z,99.90
2022-07-29T19:40:23.289Z,99.90
2022-07-29T19:42:51.803Z,99.90
2022-07-29T19:45:20.473Z,99.90
2022-07-29T19:47:47.888Z,99.90
2022-07-29T19:50:15.824Z,99.90
2022-07-29T19:52:43.570Z,99.90
2022-07-29T19:55:10.821Z,99.90
2022-07-29T19:57:41.020Z,99.90
2022-07-29T20:00:11.471Z,99.90
2022-07-29T20:02:40.185Z,99.90
2022-07-29T20:05:08.692Z,99.90
2022-07-29T20:07:36.379Z,99.90
2022-07-29T20:10:04.123Z,99.90
2022-07-29T20:12:31.009Z,99.90
2022-07-29T20:14:58.621Z,99.90
2022-07-29T20:17:25.737Z,99.90
2022-07-29T20:19:53.234Z,99.90
2022-07-29T20:22:21.881Z,99.90
2022-07-29T20:24:49.279Z,99.90
2022-07-29T20:27:16.102Z,99.90
2022-07-29T20:29:43.097Z,99.90
2022-07-29T20:32:12.605Z,99.90
2022-07-29T20:34:41.451Z,99.90
2022-07-29T20:37:14.461Z,99.90
2022-07-29T20:39:43.968Z,99.90
2022-07-29T20:42:10.737Z,99.90
2022-07-29T20:44:37.509Z,99.90
2022-07-29T20:47:04.328Z,99.90
2022-07-29T20:49:31.226Z,99.90
2022-07-29T20:51:58.480Z,99.90
2022-07-29T20:54:25.308Z,99.90
2022-07-29T20:56:52.303Z,99.90
2022-07-29T20:59:19.322Z,99.90
2022-07-29T21:01:46.565Z,99.90
2022-07-29T21:04:13.392Z,99.90
2022-07-29T21:06:40.117Z,99.90
2022-07-29T21:09:07.641Z,99.90
2022-07-29T21:11:44.758Z,99.90
2022-07-29T21:14:29.734Z,99.90
2022-07-29T21:16:56.980Z,99.90
2022-07-29T21:19:23.875Z,99.90
2022-07-29T21:21:51.060Z,99.90
2022-07-29T21:24:19.081Z,99.90
2022-07-29T21:26:54.535Z,99.90
2022-07-29T21:29:34.449Z,99.90
2022-07-29T21:32:01.381Z,99.90
2022-07-29T21:34:28.916Z,99.90
2022-07-29T21:36:55.835Z,99.90
2022-07-29T21:39:22.621Z,99.90
2022-07-29T21:41:49.371Z,99.90
2022-07-29T21:44:16.217Z,99.90
2022-07-29T21:46:43.295Z,99.90
2022-07-29T21:49:10.198Z,99.90
2022-07-29T21:51:37.165Z,99.90
2022-07-29T21:54:05.351Z,99.90
2022-07-29T21:56:33.388Z,99.90
2022-07-29T21:59:02.325Z,99.90
2022-07-29T22:01:29.414Z,99.90
2022-07-29T22:04:06.382Z,99.90
2022-07-29T22:06:34.529Z,99.90
2022-07-29T22:09:01.472Z,99.90
2022-07-29T22:11:28.283Z,99.90
2022-07-29T22:13:55.074Z,99.90
2022-07-29T22:16:22.495Z,99.90
2022-07-29T22:18:49.390Z,99.90
2022-07-29T22:21:16.318Z,99.90
2022-07-29T22:23:43.224Z,99.90
2022-07-29T22:26:10.203Z,99.90
2022-07-29T22:28:36.987Z,99.90
2022-07-29T22:31:03.907Z,99.90
2022-07-29T22:33:31.232Z,99.90
2022-07-29T22:35:58.231Z,99.90
2022-07-29T22:38:25.240Z,99.90
2022-07-29T22:40:52.608Z,99.90
2022-07-29T22:43:20.135Z,99.90
2022-07-29T22:45:48.365Z,99.90
2022-07-29T22:48:15.492Z,99.90
2022-07-29T22:50:42.714Z,99.90
2022-07-29T22:53:10.817Z,99.90
2022-07-29T22:55:38.108Z,99.90
2022-07-29T22:58:10.973Z,99.90
2022-07-29T23:00:37.848Z,99.90
2022-07-29T23:03:04.645Z,99.90
2022-07-29T23:05:33.278Z,99.90
2022-07-29T23:08:00.952Z,99.90
2022-07-29T23:10:28.786Z,99.90
2022-07-29T23:12:55.597Z,99.90
2022-07-29T23:15:23.311Z,99.90
2022-07-29T23:17:50.185Z,99.90
2022-07-29T23:20:19.942Z,99.90
2022-07-29T23:22:46.757Z,99.90
2022-07-29T23:25:13.633Z,99.90
2022-07-29T23:27:40.849Z,99.90
2022-07-29T23:30:08.441Z,99.90
2022-07-29T23:32:35.289Z,99.90
2022-07-29T23:35:02.287Z,99.90
2022-07-29T23:37:29.087Z,99.90
2022-07-29T23:39:56.182Z,99.90
2022-07-29T23:42:23.253Z,99.90
2022-07-29T23:44:50.172Z,99.90
2022-07-29T23:47:16.972Z,99.90
2022-07-29T23:49:44.077Z,99.90
2022-07-29T23:52:12.630Z,99.90
2022-07-29T23:54:39.494Z,99.90
2022-07-29T23:57:06.329Z,99.90
2022-07-29T23:59:33.202Z,99.90
